Time;durP1;ratioP1;P1;durP2;ratioP2;P2;SDS_P1;SDS_P2;PMS_P1;PMS_P2;Temp;Humidity;BMP_temperature;BMP_pressure;BME280_temperature;BME280_humidity;BME280_pressure;Samples;Min_cycle;Max_cycle;Signal;HPM_P1;HPM_P2
2022/08/31 00:04:09;;;;;;;4.47;1.47;;;;;;;23.06;100.00;102012.59;5072315;28;20039;-55
2022/08/31 00:06:35;;;;;;;5.20;1.93;;;;;;;23.20;100.00;102013.06;5074170;28;20037;-57
2022/08/31 00:09:03;;;;;;;;;;;;;;;22.91;100.00;102016.75;5074911;28;20040;-58
2022/08/31 00:11:29;;;;;;;3.95;1.60;;;;;;;23.06;100.00;102018.06;5078644;28;19997;-59
2022/08/31 00:14:08;;;;;;;4.93;2.00;;;;;;;22.94;100.00;102014.59;5074113;28;20041;-59
2022/08/31 00:16:37;;;;;;;3.93;1.50;;;;;;;22.91;100.00;102015.94;5073336;28;20063;-59
2022/08/31 00:19:03;;;;;;;3.17;1.70;;;;;;;22.90;100.00;102017.81;5072748;28;20032;-61
2022/08/31 00:21:28;;;;;;;9.23;2.78;;;;;;;22.76;100.00;102019.28;5078031;28;20032;-60
2022/08/31 00:23:54;;;;;;;4.25;1.70;;;;;;;22.82;100.00;102022.88;5074284;28;20045;-58
2022/08/31 00:26:22;;;;;;;7.37;2.23;;;;;;;22.57;100.00;102021.41;5073511;28;20029;-59
2022/08/31 00:28:48;;;;;;;4.20;1.93;;;;;;;22.38;100.00;102029.81;5068687;28;20028;-57
2022/08/31 00:31:14;;;;;;;7.00;1.80;;;;;;;22.63;100.00;102025.88;5069183;28;20100;-58
2022/08/31 00:33:40;;;;;;;5.40;1.80;;;;;;;22.57;100.00;102016.78;5071368;28;20063;-57
2022/08/31 00:36:07;;;;;;;;;;;;;;;22.49;100.00;102018.03;5072385;28;20036;-58
2022/08/31 00:38:33;;;;;;;3.60;1.63;;;;;;;22.38;100.00;102016.19;5074048;28;19924;-58
2022/08/31 00:40:59;;;;;;;3.90;1.85;;;;;;;21.99;100.00;102011.41;5076031;28;20060;-57
2022/08/31 00:43:36;;;;;;;5.07;1.60;;;;;;;22.15;100.00;102009.81;5072780;28;20045;-56
2022/08/31 00:46:02;;;;;;;3.53;1.52;;;;;;;22.13;100.00;102011.94;5072532;28;20048;-58
2022/08/31 00:48:27;;;;;;;4.23;1.83;;;;;;;22.15;100.00;102007.09;5074048;28;20070;-59
2022/08/31 00:50:54;;;;;;;3.53;2.13;;;;;;;22.24;100.00;102004.75;5073770;28;20056;-56
2022/08/31 00:53:20;;;;;;;6.50;1.97;;;;;;;22.05;100.00;102010.44;5076020;28;20028;-57
2022/08/31 00:55:46;;;;;;;5.95;1.90;;;;;;;22.24;100.00;102006.66;5075118;28;20029;-54
2022/08/31 00:58:12;;;;;;;3.33;2.03;;;;;;;22.23;100.00;101999.56;5075608;28;20116;-55
2022/08/31 01:00:41;;;;;;;4.57;2.00;;;;;;;22.11;100.00;102002.38;5073267;28;20033;-58
2022/08/31 01:03:08;;;;;;;2.57;1.73;;;;;;;22.14;100.00;102002.69;5071711;28;20037;-59
2022/08/31 01:05:34;;;;;;;;;;;;;;;21.99;100.00;102005.97;5073457;28;20029;-58
2022/08/31 01:08:00;;;;;;;4.97;2.00;;;;;;;22.15;100.00;102004.38;5072779;28;20035;-57
2022/08/31 01:10:29;;;;;;;;;;;;;;;22.01;100.00;102005.72;5076726;28;20024;-58
2022/08/31 01:12:56;;;;;;;3.60;1.80;;;;;;;22.10;100.00;102011.59;5074331;28;19912;-57
2022/08/31 01:15:24;;;;;;;3.27;1.90;;;;;;;21.86;100.00;102000.81;5083411;28;20063;-59
2022/08/31 01:17:53;;;;;;;3.67;1.80;;;;;;;21.70;100.00;102002.44;5080697;28;20270;-58
2022/08/31 01:20:51;;;;;;;2.33;1.50;;;;;;;21.94;100.00;102000.44;5085933;28;20044;-58
2022/08/31 01:23:26;;;;;;;5.03;1.90;;;;;;;21.91;100.00;102004.47;5081034;28;20274;-56
2022/08/31 01:25:55;;;;;;;4.47;1.83;;;;;;;21.83;100.00;102006.75;5074760;28;20028;-56
2022/08/31 01:28:21;;;;;;;6.13;2.07;;;;;;;21.76;100.00;102012.34;5084905;28;20273;-54
2022/08/31 01:31:01;;;;;;;4.57;1.50;;;;;;;21.58;100.00;102000.53;5079329;28;20071;-59
2022/08/31 01:33:28;;;;;;;4.47;1.70;;;;;;;21.52;100.00;102001.50;5076423;28;20265;-56
2022/08/31 01:35:55;;;;;;;4.00;2.27;;;;;;;21.68;100.00;102005.38;5077827;28;20308;-57
2022/08/31 01:38:20;;;;;;;4.00;1.50;;;;;;;21.53;100.00;102002.31;5076617;28;20294;-59
2022/08/31 01:40:53;;;;;;;3.23;1.57;;;;;;;21.68;100.00;102002.66;5075859;28;20062;-56
2022/08/31 01:43:19;;;;;;;5.03;1.87;;;;;;;21.52;100.00;102006.94;5072338;28;20301;-57
2022/08/31 01:45:45;;;;;;;7.00;1.67;;;;;;;21.65;100.00;102010.47;5082459;28;20269;-58
2022/08/31 01:48:11;;;;;;;5.32;1.75;;;;;;;21.68;100.00;102010.00;5079975;28;20092;-55
2022/08/31 01:50:36;;;;;;;3.15;1.92;;;;;;;21.59;100.00;102010.34;5074453;28;20040;-57
2022/08/31 01:53:02;;;;;;;3.97;1.73;;;;;;;21.68;100.00;102013.56;5076112;28;20066;-58
2022/08/31 01:55:29;;;;;;;5.93;1.80;;;;;;;21.68;100.00;102012.72;5075115;28;20281;-56
2022/08/31 01:57:57;;;;;;;7.55;2.00;;;;;;;21.65;100.00;102010.47;5073921;28;20300;-58
2022/08/31 02:00:42;;;;;;;;;;;;;;;21.44;100.00;102020.91;5076593;28;20052;-60
2022/08/31 02:03:09;;;;;;;5.88;1.88;;;;;;;21.40;100.00;102006.97;5078201;28;19970;-57
2022/08/31 02:05:36;;;;;;;3.37;1.80;;;;;;;21.56;100.00;102016.28;5079721;28;20078;-57
2022/08/31 02:08:05;;;;;;;2.43;1.50;;;;;;;21.40;100.00;102011.59;5084919;28;20291;-56
2022/08/31 02:10:31;;;;;;;4.07;2.00;;;;;;;21.49;100.00;102012.88;5073258;28;20285;-60
2022/08/31 02:12:56;;;;;;;3.42;1.88;;;;;;;21.25;100.00;102012.94;5077488;28;20032;-57
2022/08/31 02:15:29;;;;;;;3.00;1.70;;;;;;;21.25;100.00;102007.50;5072945;28;20055;-56
2022/08/31 02:17:55;;;;;;;3.97;1.73;;;;;;;21.21;100.00;102006.28;5071536;28;20078;-57
2022/08/31 02:20:22;;;;;;;5.23;1.93;;;;;;;21.26;100.00;102009.16;5074998;28;20029;-55
2022/08/31 02:22:48;;;;;;;4.67;1.93;;;;;;;21.22;100.00;102009.84;5075570;28;20024;-58
2022/08/31 02:25:15;;;;;;;;;;;;;;;20.98;100.00;102002.53;5075554;28;20266;-57
2022/08/31 02:27:41;;;;;;;4.37;1.90;;;;;;;21.03;100.00;102007.25;5088836;28;19913;-60
2022/08/31 02:30:12;;;;;;;3.40;1.80;;;;;;;21.14;100.00;102009.16;5073618;28;20289;-54
2022/08/31 02:32:38;;;;;;;3.87;1.83;;;;;;;21.18;100.00;102004.88;5077802;28;20288;-56
2022/08/31 02:35:04;;;;;;;3.33;1.70;;;;;;;21.11;100.00;102008.81;5075316;28;20278;-57
2022/08/31 02:37:30;;;;;;;6.38;1.80;;;;;;;21.09;100.00;102008.22;5076732;28;20029;-58
2022/08/31 02:39:55;;;;;;;6.43;1.80;;;;;;;21.16;100.00;102015.19;5073484;28;20044;-58
2022/08/31 02:42:21;;;;;;;4.00;1.45;;;;;;;21.15;100.00;102008.09;5076617;28;20049;-59
2022/08/31 02:44:48;;;;;;;6.13;1.90;;;;;;;21.16;100.00;102014.34;5077649;28;20055;-58
2022/08/31 02:47:13;;;;;;;3.87;1.70;;;;;;;20.93;100.00;102010.56;5075132;28;20273;-54
2022/08/31 02:49:46;;;;;;;2.40;1.73;;;;;;;20.98;100.00;102009.88;5082297;28;20028;-55
2022/08/31 02:52:12;;;;;;;3.22;1.80;;;;;;;21.12;100.00;102007.72;5077110;28;20285;-58
2022/08/31 02:54:39;;;;;;;3.60;1.67;;;;;;;21.00;100.00;102008.59;5082415;28;20028;-58
2022/08/31 02:57:05;;;;;;;5.00;2.38;;;;;;;21.02;100.00;102005.63;5076088;28;20273;-58
2022/08/31 02:59:31;;;;;;;;;;;;;;;20.88;100.00;102007.75;5069314;28;20092;-61
2022/08/31 03:01:57;;;;;;;4.70;1.60;;;;;;;20.81;100.00;102007.84;5073125;28;19942;-55
2022/08/31 03:04:23;;;;;;;3.45;1.65;;;;;;;20.89;100.00;102009.41;5073643;28;20044;-57
2022/08/31 03:06:48;;;;;;;5.07;1.77;;;;;;;20.67;100.00;102000.97;5067683;28;20044;-58
2022/08/31 03:09:14;;;;;;;3.03;1.50;;;;;;;20.69;100.00;102009.72;5074867;28;20277;-58
2022/08/31 03:11:41;;;;;;;4.83;1.40;;;;;;;20.45;100.00;102007.78;5074707;28;20033;-58
2022/08/31 03:14:08;;;;;;;3.10;2.07;;;;;;;20.59;100.00;102010.31;5076349;28;20257;-59
2022/08/31 03:16:33;;;;;;;3.78;1.90;;;;;;;20.59;100.00;102013.03;5078389;28;20281;-58
2022/08/31 03:19:00;;;;;;;;;;;;;;;20.78;100.00;102013.75;5078132;28;20044;-58
2022/08/31 03:21:26;;;;;;;3.23;1.43;;;;;;;20.67;100.00;102011.84;5075144;28;19919;-59
2022/08/31 03:23:51;;;;;;;9.40;1.50;;;;;;;20.62;100.00;102009.84;5076939;28;20033;-56
2022/08/31 03:26:16;;;;;;;6.82;1.70;;;;;;;20.43;100.00;102003.69;5074754;28;20029;-58
2022/08/31 03:28:42;;;;;;;3.50;1.85;;;;;;;20.52;100.00;102004.13;5070955;28;20052;-56
2022/08/31 03:31:27;;;;;;;3.63;1.43;;;;;;;20.42;100.00;102010.97;5071399;28;20067;-59
2022/08/31 03:33:54;;;;;;;3.53;1.42;;;;;;;20.53;100.00;102008.50;5069274;28;20266;-56
2022/08/31 03:36:20;;;;;;;;;;;;;;;20.54;100.00;102008.28;5071502;28;20060;-58
2022/08/31 03:38:46;;;;;;;1.93;1.20;;;;;;;20.61;100.00;102009.00;5070422;28;19972;-57
2022/08/31 03:41:15;;;;;;;2.53;1.30;;;;;;;20.60;100.00;102012.78;5072798;28;20026;-59
2022/08/31 03:43:41;;;;;;;2.60;1.30;;;;;;;20.37;100.00;102005.44;5072614;28;20049;-60
2022/08/31 03:46:06;;;;;;;5.27;2.17;;;;;;;20.41;100.00;102014.75;5070892;28;20290;-58
2022/08/31 03:48:33;;;;;;;3.97;1.77;;;;;;;20.26;100.00;102003.50;5060387;28;20029;-58
2022/08/31 03:50:58;;;;;;;4.55;1.30;;;;;;;20.24;100.00;102006.47;5074013;28;20045;-59
2022/08/31 03:53:27;;;;;;;4.83;1.80;;;;;;;20.26;100.00;102011.66;5073120;28;20030;-59
2022/08/31 03:56:00;;;;;;;3.20;1.60;;;;;;;20.12;100.00;102011.03;5077536;28;20270;-59
2022/08/31 03:58:27;;;;;;;3.40;1.37;;;;;;;20.20;100.00;102016.13;5075416;28;20350;-58
2022/08/31 04:00:53;;;;;;;5.80;1.70;;;;;;;20.08;100.00;102021.53;5074256;28;20360;-56
2022/08/31 04:03:54;;;;;;;4.40;1.53;;;;;;;19.85;100.00;102019.50;5077917;28;20300;-60
2022/08/31 04:06:40;;;;;;;5.70;1.53;;;;;;;20.10;100.00;102026.72;5076991;28;20276;-58
2022/08/31 04:09:38;;;;;;;3.37;1.70;;;;;;;19.89;100.00;102029.69;5072547;28;20284;-59
2022/08/31 04:12:26;;;;;;;3.87;1.53;;;;;;;20.04;100.00;102034.72;5068702;28;20321;-59
2022/08/31 04:15:08;;;;;;;3.30;1.57;;;;;;;20.01;100.00;102034.34;5075278;28;20288;-58
2022/08/31 04:17:55;;;;;;;6.63;2.20;;;;;;;20.07;100.00;102025.31;5060048;28;20281;-58
2022/08/31 04:20:39;;;;;;;6.80;2.60;;;;;;;20.07;100.00;102022.59;5069922;28;20500;-56
2022/08/31 04:23:06;;;;;;;10.40;5.25;;;;;;;19.95;100.00;102030.66;5072865;28;20271;-57
2022/08/31 04:25:41;;;;;;;15.33;7.10;;;;;;;19.89;100.00;102018.81;5074362;28;20049;-59
2022/08/31 04:28:07;;;;;;;7.77;3.87;;;;;;;20.00;100.00;102024.56;5071711;28;20262;-58
2022/08/31 04:30:41;;;;;;;10.03;2.87;;;;;;;19.98;100.00;102021.25;5075388;28;20324;-58
2022/08/31 04:33:08;;;;;;;12.20;6.10;;;;;;;19.93;100.00;102021.94;5072995;28;20266;-58
2022/08/31 04:35:34;;;;;;;14.43;6.77;;;;;;;19.66;100.00;102024.16;5077843;28;20273;-58
2022/08/31 04:38:00;;;;;;;5.30;2.90;;;;;;;19.72;100.00;102032.22;5073658;28;20040;-60
2022/08/31 04:40:25;;;;;;;4.90;2.30;;;;;;;19.80;100.00;102031.03;5075658;28;20040;-57
2022/08/31 04:42:52;;;;;;;26.42;11.80;;;;;;;19.68;100.00;102032.88;5080661;28;20078;-59
2022/08/31 04:45:20;;;;;;;11.10;5.97;;;;;;;19.82;100.00;102022.69;5077690;28;20032;-58
2022/08/31 04:47:46;;;;;;;3.55;1.73;;;;;;;19.85;100.00;102022.22;5073962;28;20278;-57
2022/08/31 04:50:15;;;;;;;13.07;6.17;;;;;;;19.94;100.00;102025.47;5078470;28;20032;-59
2022/08/31 04:53:04;;;;;;;21.63;9.07;;;;;;;19.96;100.00;102028.78;5076879;28;20028;-59
2022/08/31 04:55:30;;;;;;;15.57;6.18;;;;;;;19.79;100.00;102023.97;5072599;28;20265;-58
2022/08/31 04:57:56;;;;;;;13.32;6.47;;;;;;;19.73;100.00;102036.56;5075978;28;20060;-56
2022/08/31 05:00:21;;;;;;;11.07;5.68;;;;;;;19.81;100.00;102040.84;5076757;28;20029;-56
2022/08/31 05:03:11;;;;;;;11.60;5.03;;;;;;;19.81;100.00;102040.84;5074638;28;20044;-58
2022/08/31 05:05:38;;;;;;;16.30;4.27;;;;;;;19.66;100.00;102041.25;5073624;28;20277;-56
2022/08/31 05:08:05;;;;;;;30.30;6.53;;;;;;;19.61;100.00;102050.06;5077025;28;20277;-57
2022/08/31 05:10:33;;;;;;;14.03;4.37;;;;;;;19.82;100.00;102047.91;5078037;28;20276;-58
2022/08/31 05:12:58;;;;;;;15.48;5.07;;;;;;;19.77;100.00;102047.78;5079889;28;20277;-58
2022/08/31 05:15:24;;;;;;;14.10;4.75;;;;;;;19.80;100.00;102052.75;5076089;28;20100;-60
2022/08/31 05:17:50;;;;;;;14.85;3.50;;;;;;;19.77;100.00;102051.34;5078147;28;20045;-58
2022/08/31 05:20:16;;;;;;;11.07;3.35;;;;;;;19.68;100.00;102049.97;5060677;28;20044;-59
2022/08/31 05:22:41;;;;;;;96.35;47.63;;;;;;;19.46;100.00;102061.28;5079448;28;20135;-59
2022/08/31 05:25:08;;;;;;;15.75;6.80;;;;;;;19.60;100.00;102056.53;5079317;28;20040;-59
2022/08/31 05:27:35;;;;;;;8.32;3.50;;;;;;;19.68;100.00;102062.72;5075378;28;20032;-60
2022/08/31 05:30:02;;;;;;;10.83;4.37;;;;;;;19.36;100.00;102055.56;5072350;28;20029;-59
2022/08/31 05:32:44;;;;;;;32.67;13.80;;;;;;;19.58;100.00;102060.53;5071626;28;20296;-60
2022/08/31 05:35:10;;;;;;;11.20;4.57;;;;;;;19.74;100.00;102067.25;5071722;28;20285;-60
2022/08/31 05:37:38;;;;;;;5.30;2.27;;;;;;;19.68;100.00;102066.25;5069690;28;20266;-59
2022/08/31 05:40:05;;;;;;;11.98;3.35;;;;;;;19.78;100.00;102065.72;5073640;28;20293;-59
2022/08/31 05:42:31;;;;;;;10.17;2.20;;;;;;;19.75;100.00;102067.03;5079715;28;20051;-59
2022/08/31 05:44:57;;;;;;;6.45;2.25;;;;;;;19.80;100.00;102068.22;5076480;28;20306;-58
2022/08/31 05:47:23;;;;;;;5.88;2.22;;;;;;;19.80;100.00;102070.94;5079468;28;20036;-57
2022/08/31 05:49:49;;;;;;;;;;;;;;;19.73;100.00;102071.00;5077663;28;21165;-60
2022/08/31 05:52:18;;;;;;;168.63;83.87;;;;;;;19.71;100.00;102073.13;5075253;28;19917;-60
2022/08/31 05:54:44;;;;;;;61.28;25.50;;;;;;;19.92;100.00;102072.69;5077124;28;20278;-61
2022/08/31 05:57:10;;;;;;;8.87;4.53;;;;;;;19.63;100.00;102069.66;5071756;28;20033;-59
2022/08/31 05:59:38;;;;;;;20.85;6.00;;;;;;;19.77;100.00;102070.34;5066891;28;20273;-59
2022/08/31 06:02:07;;;;;;;8.07;1.83;;;;;;;19.65;100.00;102068.63;5071700;28;20025;-58
2022/08/31 06:04:33;;;;;;;4.83;1.77;;;;;;;19.73;100.00;102069.16;5075128;28;20265;-58
2022/08/31 06:06:59;;;;;;;2.70;1.40;;;;;;;19.89;100.00;102067.69;5075560;28;20296;-58
2022/08/31 06:09:28;;;;;;;5.10;1.70;;;;;;;20.02;100.00;102071.31;5071658;28;20092;-58
2022/08/31 06:11:55;;;;;;;8.98;3.25;;;;;;;19.98;100.00;102078.25;5075161;28;20324;-59
2022/08/31 06:14:24;;;;;;;13.95;3.88;;;;;;;20.12;100.00;102071.59;5077605;28;20070;-59
2022/08/31 06:16:55;;;;;;;5.93;2.37;;;;;;;20.17;100.00;102077.16;5092982;28;20052;-57
2022/08/31 06:19:20;;;;;;;4.57;1.63;;;;;;;20.24;100.00;102073.53;5076921;28;20270;-58
2022/08/31 06:21:49;;;;;;;2.73;1.33;;;;;;;20.29;100.00;102073.66;5080540;28;20261;-57
2022/08/31 06:24:18;;;;;;;5.20;1.60;;;;;;;20.11;100.00;102078.09;5082338;28;20293;-59
2022/08/31 06:26:50;;;;;;;3.40;1.10;;;;;;;20.20;100.00;102084.03;5081284;28;20309;-60
2022/08/31 06:29:17;;;;;;;3.07;1.27;;;;;;;20.07;100.00;102090.47;5078122;28;20274;-59
2022/08/31 06:31:45;;;;;;;5.05;1.35;;;;;;;20.16;100.00;102085.53;5075364;28;20288;-60
2022/08/31 06:34:15;;;;;;;3.43;1.30;;;;;;;20.05;100.00;102092.56;5078621;28;20036;-58
2022/08/31 06:37:02;;;;;;;4.13;1.83;;;;;;;20.23;100.00;102082.72;5069709;28;20266;-59
2022/08/31 06:39:38;;;;;;;4.17;1.13;;;;;;;20.33;100.00;102085.72;5074580;28;20265;-59
2022/08/31 06:42:14;;;;;;;6.07;1.23;;;;;;;20.24;100.00;102089.81;5074081;28;20274;-57
2022/08/31 06:44:59;;;;;;;5.37;1.40;;;;;;;20.26;100.00;102093.13;5076990;28;20116;-59
2022/08/31 06:47:59;;;;;;;4.27;1.53;;;;;;;20.42;100.00;102097.91;5092592;28;20663;-59
2022/08/31 06:50:26;;;;;;;6.10;1.47;;;;;;;20.47;100.00;102094.53;5075844;28;20257;-58
2022/08/31 06:52:54;;;;;;;4.73;1.17;;;;;;;20.21;100.00;102096.56;5075767;28;20329;-57
2022/08/31 06:55:33;;;;;;;3.57;1.47;;;;;;;20.24;100.00;102096.09;5078784;28;20254;-57
2022/08/31 06:57:59;;;;;;;3.33;1.00;;;;;;;20.55;100.00;102096.91;5077600;28;20277;-59
2022/08/31 07:00:52;;;;;;;6.63;1.57;;;;;;;20.75;100.00;102104.72;5069968;28;20048;-58
2022/08/31 07:03:38;;;;;;;5.00;1.27;;;;;;;20.79;100.00;102118.69;5072029;28;20265;-58
2022/08/31 07:06:09;;;;;;;4.67;1.70;;;;;;;20.51;100.00;102122.03;5074316;28;20270;-58
2022/08/31 07:08:38;;;;;;;1.60;0.87;;;;;;;20.71;100.00;102108.97;5074713;28;20314;-59
2022/08/31 07:11:14;;;;;;;3.97;1.03;;;;;;;20.92;100.00;102115.81;5074786;28;20048;-59
2022/08/31 07:13:39;;;;;;;9.97;1.80;;;;;;;21.13;100.00;102118.19;5071823;28;20274;-58
2022/08/31 07:16:10;;;;;;;3.17;1.00;;;;;;;21.08;100.00;102116.16;5075061;28;20278;-58
2022/08/31 07:18:38;;;;;;;3.33;1.33;;;;;;;21.06;100.00;102118.28;5075362;28;20037;-58
2022/08/31 07:21:14;;;;;;;6.67;1.30;;;;;;;21.23;100.00;102118.44;5071902;28;20041;-59
2022/08/31 07:23:40;;;;;;;2.20;1.17;;;;;;;21.12;100.00;102121.97;5087265;28;20065;-59
2022/08/31 07:26:17;;;;;;;6.63;1.47;;;;;;;21.12;100.00;102122.81;5073114;28;20036;-59
2022/08/31 07:28:43;;;;;;;3.20;1.13;;;;;;;21.20;100.00;102113.44;5072749;28;20029;-59
2022/08/31 07:31:14;;;;;;;5.03;1.27;;;;;;;20.97;100.00;102125.97;5071334;28;20025;-59
2022/08/31 07:33:41;;;;;;;1.40;0.80;;;;;;;21.22;100.00;102127.66;5070416;28;20059;-60
2022/08/31 07:36:10;;;;;;;3.30;0.90;;;;;;;21.40;100.00;102117.69;5070312;28;20025;-60
2022/08/31 07:44:33;;;;;;;2.37;0.80;;;;;;;21.07;100.00;102130.81;5078049;28;20056;-60
2022/08/31 07:47:00;;;;;;;2.13;1.10;;;;;;;21.30;100.00;102129.16;5075734;28;20067;-58
2022/08/31 07:49:27;;;;;;;4.13;1.27;;;;;;;21.37;100.00;102129.06;5080495;28;20059;-59
2022/08/31 07:52:22;;;;;;;3.23;1.27;;;;;;;21.54;100.00;102135.44;5082751;28;20113;-60
2022/08/31 07:55:06;;;;;;;3.73;1.30;;;;;;;21.81;100.00;102134.97;5072923;28;20093;-59
2022/08/31 07:57:53;;;;;;;2.90;1.20;;;;;;;22.13;100.00;102136.41;5073146;28;20436;-59
2022/08/31 08:00:31;;;;;;;3.40;1.30;;;;;;;22.44;100.00;102143.28;5072910;28;20028;-61
2022/08/31 08:03:05;;;;;;;1.70;0.90;;;;;;;22.27;100.00;102140.53;5070487;28;20039;-59
2022/08/31 08:05:50;;;;;;;2.93;1.17;;;;;;;22.28;100.00;102139.44;5074223;28;20032;-60
2022/08/31 08:08:33;;;;;;;2.00;1.00;;;;;;;22.56;100.00;102150.59;5078514;28;20041;-60
2022/08/31 08:11:14;;;;;;;5.30;1.40;;;;;;;22.55;100.00;102140.78;5075824;28;20552;-60
2022/08/31 08:13:45;;;;;;;5.53;1.17;;;;;;;22.45;100.00;102139.50;5077717;28;20029;-60
2022/08/31 08:16:18;;;;;;;4.77;1.20;;;;;;;22.45;100.00;102144.94;5075456;28;20029;-60
2022/08/31 08:18:55;;;;;;;3.30;0.68;;;;;;;22.49;100.00;102139.88;5078247;28;20045;-58
2022/08/31 08:21:26;;;;;;;2.70;0.80;;;;;;;22.68;100.00;102142.34;5083007;28;20021;-59
2022/08/31 08:23:52;;;;;;;;;;;;;;;22.58;100.00;102140.28;5083640;28;20025;-59
2022/08/31 08:26:34;;;;;;;5.37;1.47;;;;;;;22.70;100.00;102140.22;5094761;28;20410;-59
2022/08/31 08:29:10;;;;;;;2.15;1.00;;;;;;;22.72;100.00;102138.91;5084848;28;20028;-59
2022/08/31 08:31:41;;;;;;;3.30;1.00;;;;;;;22.97;100.00;102143.13;5073777;28;20028;-60
2022/08/31 08:34:08;;;;;;;3.13;1.10;;;;;;;22.90;100.00;102137.84;5074681;28;20029;-59
2022/08/31 08:36:36;;;;;;;7.30;1.07;;;;;;;22.92;100.00;102145.78;5061131;28;20056;-59
2022/08/31 08:39:06;;;;;;;6.23;1.53;;;;;;;23.17;100.00;102147.25;5079642;28;20055;-60
2022/08/31 08:41:35;;;;;;;2.50;1.03;;;;;;;23.01;100.00;102152.47;5061561;28;20033;-60
2022/08/31 08:44:06;;;;;;;1.33;0.73;;;;;;;23.26;100.00;102140.31;5083907;28;20041;-59
2022/08/31 08:46:38;;;;;;;6.47;1.20;;;;;;;23.30;100.00;102146.97;5077252;28;20032;-58
2022/08/31 08:49:23;;;;;;;3.53;1.20;;;;;;;23.59;100.00;102149.56;5085778;28;20044;-60
2022/08/31 08:52:06;;;;;;;4.93;1.07;;;;;;;23.74;100.00;102142.63;5085060;28;20028;-59
2022/08/31 08:54:37;;;;;;;4.90;1.10;;;;;;;23.68;100.00;102146.38;5076696;28;20041;-60
2022/08/31 08:57:12;;;;;;;6.27;1.50;;;;;;;23.70;100.00;102136.03;5095130;28;20037;-59
2022/08/31 08:59:42;;;;;;;2.97;1.35;;;;;;;23.81;100.00;102137.81;5075463;28;20495;-58
2022/08/31 09:02:13;;;;;;;3.50;1.00;;;;;;;24.20;100.00;102145.13;5075853;28;20025;-58
2022/08/31 09:04:45;;;;;;;3.93;1.20;;;;;;;24.35;100.00;102149.94;5079256;28;20066;-59
2022/08/31 09:07:36;;;;;;;3.80;1.23;;;;;;;24.73;100.00;102142.66;5075491;28;20040;-58
2022/08/31 09:10:18;;;;;;;2.60;0.80;;;;;;;25.16;97.96;102139.19;5077731;28;20033;-59
2022/08/31 09:13:10;;;;;;;1.90;1.10;;;;;;;25.73;92.92;102137.63;5074132;28;20039;-60
2022/08/31 09:15:57;;;;;;;4.93;1.10;;;;;;;26.14;90.03;102142.44;5077391;28;20095;-59
2022/08/31 09:18:51;;;;;;;4.07;0.90;;;;;;;26.47;87.52;102143.06;5076774;28;20025;-60
2022/08/31 09:21:20;;;;;;;1.57;0.60;;;;;;;26.98;82.87;102144.19;5078864;28;20035;-61
2022/08/31 09:24:00;;;;;;;2.47;0.80;;;;;;;27.48;79.01;102140.84;5079662;28;20036;-60
2022/08/31 09:26:34;;;;;;;5.73;1.10;;;;;;;28.13;74.01;102144.69;5081817;28;20032;-61
2022/08/31 09:29:12;;;;;;;2.70;0.82;;;;;;;28.65;70.45;102145.19;5084495;28;20024;-61
2022/08/31 09:31:41;;;;;;;4.13;0.80;;;;;;;29.00;68.19;102140.50;5085138;28;20037;-60
2022/08/31 09:34:30;;;;;;;5.38;0.93;;;;;;;28.46;69.90;102145.88;5078059;28;20119;-60
2022/08/31 09:37:19;;;;;;;2.60;0.70;;;;;;;28.75;68.26;102139.59;5077215;28;20074;-61
2022/08/31 09:39:48;;;;;;;3.83;0.85;;;;;;;29.58;63.88;102149.03;5077439;28;20077;-60
2022/08/31 09:42:19;;;;;;;3.28;0.68;;;;;;;30.18;60.30;102143.00;5078900;28;20045;-59
2022/08/31 09:44:48;;;;;;;3.35;0.85;;;;;;;30.69;58.35;102143.38;5075674;28;20032;-61
2022/08/31 09:47:51;;;;;;;2.47;1.05;;;;;;;30.95;55.27;102145.69;5074938;28;20104;-65
2022/08/31 09:50:45;;;;;;;7.40;1.58;;;;;;;31.31;53.80;102145.03;5075338;28;20057;-60
2022/08/31 09:56:14;;;;;;;2.33;0.70;;;;;;;30.89;55.34;102149.66;5079887;28;20039;-60
2022/08/31 09:59:00;;;;;;;2.63;0.75;;;;;;;30.86;55.11;102145.56;5083814;28;20036;-60
2022/08/31 10:01:38;;;;;;;3.70;0.95;;;;;;;31.55;53.30;102144.00;5081979;28;20089;-60
2022/08/31 10:04:17;;;;;;;2.40;0.90;;;;;;;32.51;50.97;102156.31;5083545;28;20066;-63
2022/08/31 10:07:08;;;;;;;4.38;0.70;;;;;;;32.72;49.43;102160.22;5076842;28;20032;-60
2022/08/31 10:09:38;;;;;;;11.10;0.98;;;;;;;31.78;51.16;102155.19;5075223;28;20033;-58
2022/08/31 10:12:10;;;;;;;4.50;1.00;;;;;;;31.23;52.53;102156.81;5072923;28;20067;-59
2022/08/31 10:14:42;;;;;;;3.58;1.23;;;;;;;30.92;53.61;102151.81;5074249;28;20108;-59
2022/08/31 10:17:24;;;;;;;2.70;1.00;;;;;;;30.37;57.54;102144.94;5075470;28;20044;-60
2022/08/31 10:20:15;;;;;;;3.97;1.02;;;;;;;29.85;58.59;102142.06;5077097;28;21003;-61
2022/08/31 10:22:50;;;;;;;2.78;0.75;;;;;;;29.86;59.10;102140.94;5079218;28;20025;-61
2022/08/31 10:25:25;;;;;;;4.57;0.93;;;;;;;31.00;54.69;102148.34;5077892;28;20104;-60
2022/08/31 10:28:10;;;;;;;6.85;1.17;;;;;;;30.44;57.14;102137.09;5079213;28;20039;-60
2022/08/31 10:30:45;;;;;;;5.57;0.60;;;;;;;30.55;56.99;102146.03;5079194;28;20084;-60
2022/08/31 10:36:24;;;;;;;4.07;1.17;;;;;;;31.67;53.50;102143.47;5083160;28;20052;-60
2022/08/31 10:38:53;;;;;;;7.03;1.17;;;;;;;32.03;50.76;102147.44;5075653;28;20063;-60
2022/08/31 10:41:26;;;;;;;1.42;0.82;;;;;;;32.07;50.88;102151.25;5075171;28;20024;-58
2022/08/31 10:44:16;;;;;;;2.15;0.70;;;;;;;31.47;51.78;102142.78;5073386;28;20102;-60
2022/08/31 10:46:42;;;;;;;2.63;0.70;;;;;;;31.69;50.92;102137.66;5071941;28;20093;-59
2022/08/31 10:49:10;;;;;;;3.50;0.57;;;;;;;32.02;49.72;102137.50;5073277;28;20029;-60
2022/08/31 10:51:50;;;;;;;4.05;0.95;;;;;;;31.36;52.08;102133.06;5073595;28;20033;-60
2022/08/31 10:54:48;;;;;;;2.33;0.80;;;;;;;31.14;51.55;102133.72;5076424;28;20056;-58
2022/08/31 10:57:38;;;;;;;1.52;0.90;;;;;;;31.51;52.56;102134.69;5075962;28;20105;-60
2022/08/31 11:03:02;;;;;;;4.63;0.90;;;;;;;34.18;44.10;102138.41;5072904;28;20076;-60
2022/08/31 11:05:32;;;;;;;4.70;0.98;;;;;;;34.90;42.95;102145.50;5075641;28;20059;-60
2022/08/31 11:08:19;;;;;;;4.60;2.00;;;;;;;35.59;42.03;102148.34;5072854;28;20033;-60
2022/08/31 11:10:47;;;;;;;;;;;;;;;35.11;41.55;102142.03;5077390;28;20047;-60
2022/08/31 11:13:48;;;;;;;51.63;32.63;;;;;;;35.24;41.20;102138.19;5068440;28;19931;-59
2022/08/31 11:16:31;;;;;;;33.40;22.17;;;;;;;35.68;40.88;102142.72;5080904;28;20045;-59
2022/08/31 11:19:28;;;;;;;12.77;6.70;;;;;;;36.30;39.54;102146.66;5072577;28;20028;-60
2022/08/31 11:22:18;;;;;;;13.10;5.45;;;;;;;36.72;38.07;102145.78;5076322;28;20123;-60
2022/08/31 11:25:25;;;;;;;14.55;6.35;;;;;;;37.76;35.84;102148.75;5073612;28;20029;-61
2022/08/31 11:27:59;;;;;;;13.65;5.82;;;;;;;37.53;35.55;102144.47;5049316;28;20044;-60
2022/08/31 11:30:28;;;;;;;22.00;8.07;;;;;;;37.88;35.90;102143.13;5074311;28;20056;-60
2022/08/31 11:33:06;;;;;;;12.40;4.75;;;;;;;38.44;34.69;102142.34;5071361;28;20041;-59
2022/08/31 11:36:05;;;;;;;28.13;17.65;;;;;;;38.91;34.66;102151.16;5071743;28;20020;-60
2022/08/31 11:39:10;;;;;;;45.28;29.50;;;;;;;38.78;33.93;102141.25;5070807;28;20085;-58
2022/08/31 11:41:45;;;;;;;98.65;63.63;;;;;;;39.41;32.73;102140.41;5063420;28;20037;-59
2022/08/31 11:44:30;;;;;;;56.08;33.67;;;;;;;38.76;33.29;102129.59;5074567;28;20045;-60
2022/08/31 11:47:23;;;;;;;55.80;35.50;;;;;;;37.28;36.14;102129.72;5075929;28;20045;-59
2022/08/31 11:49:53;;;;;;;63.85;38.53;;;;;;;37.88;34.51;102135.56;5072187;28;20029;-59
2022/08/31 11:52:39;;;;;;;55.38;35.20;;;;;;;37.06;35.31;102125.41;5069981;28;20068;-61
2022/08/31 11:55:20;;;;;;;29.50;15.85;;;;;;;36.50;36.43;102123.88;5072011;28;20037;-59
2022/08/31 11:58:05;;;;;;;19.52;11.43;;;;;;;36.94;35.24;102118.66;5070925;28;20029;-61
2022/08/31 12:00:56;;;;;;;16.15;7.50;;;;;;;36.82;35.58;102121.41;5072759;28;20067;-57
2022/08/31 12:03:42;;;;;;;9.45;3.03;;;;;;;38.04;35.41;102122.84;5077155;28;20036;-59